sensor_id;sensor_type;location;lat;lon;timestamp;pressure;altitude;pressure_sealevel;temperature;humidity
51289;BME280;37372;52.294;5.152;2023-08-06T00:02:15;100422.56;;;14.24;100.00
51289;BME280;37372;52.294;5.152;2023-08-06T00:04:43;100421.44;;;14.20;100.00
51289;BME280;37372;52.294;5.152;2023-08-06T00:07:14;100415.91;;;14.20;100.00
51289;BME280;37372;52.294;5.152;2023-08-06T00:09:41;100427.75;;;14.15;100.00
51289;BME280;37372;52.294;5.152;2023-08-06T00:12:15;100426.94;;;14.20;100.00
51289;BME280;37372;52.294;5.152;2023-08-06T00:14:40;100423.41;;;14.24;100.00
51289;BME280;37372;52.294;5.152;2023-08-06T00:17:16;100428.09;;;14.24;100.00
51289;BME280;37372;52.294;5.152;2023-08-06T00:19:43;100418.44;;;14.26;100.00
51289;BME280;37372;52.294;5.152;2023-08-06T00:22:20;100421.75;;;14.23;100.00
51289;BME280;37372;52.294;5.152;2023-08-06T00:24:45;100423.91;;;14.21;100.00
51289;BME280;37372;52.294;5.152;2023-08-06T00:27:21;100415.91;;;14.20;100.00
51289;BME280;37372;52.294;5.152;2023-08-06T00:29:49;100423.06;;;14.16;100.00
51289;BME280;37372;52.294;5.152;2023-08-06T00:32:21;100416.19;;;14.18;100.00
51289;BME280;37372;52.294;5.152;2023-08-06T00:34:48;100418.13;;;14.18;100.00
51289;BME280;37372;52.294;5.152;2023-08-06T00:37:22;100421.94;;;14.17;100.00
51289;BME280;37372;52.294;5.152;2023-08-06T00:39:48;100418.63;;;14.15;100.00
51289;BME280;37372;52.294;5.152;2023-08-06T00:42:27;100421.66;;;14.13;100.00
51289;BME280;37372;52.294;5.152;2023-08-06T00:44:54;100415.88;;;14.15;100.00
51289;BME280;37372;52.294;5.152;2023-08-06T00:47:21;100417.28;;;14.17;100.00
51289;BME280;37372;52.294;5.152;2023-08-06T00:49:48;100414.81;;;14.21;100.00
51289;BME280;37372;52.294;5.152;2023-08-06T00:52:28;100415.69;;;14.26;100.00
51289;BME280;37372;52.294;5.152;2023-08-06T00:54:53;100417.06;;;14.29;100.00
51289;BME280;37372;52.294;5.152;2023-08-06T00:57:25;100419.28;;;14.27;100.00
51289;BME280;37372;52.294;5.152;2023-08-06T00:59:54;100420.94;;;14.28;100.00
51289;BME280;37372;52.294;5.152;2023-08-06T01:02:29;100417.63;;;14.26;100.00
51289;BME280;37372;52.294;5.152;2023-08-06T01:04:54;100416.78;;;14.25;100.00
51289;BME280;37372;52.294;5.152;2023-08-06T01:13:34;100410.66;;;14.18;100.00
51289;BME280;37372;52.294;5.152;2023-08-06T01:16:10;100412.63;;;14.23;100.00
51289;BME280;37372;52.294;5.152;2023-08-06T01:18:36;100409.63;;;14.24;100.00
51289;BME280;37372;52.294;5.152;2023-08-06T01:21:04;100410.13;;;14.21;100.00
51289;BME280;37372;52.294;5.152;2023-08-06T01:23:29;100416.47;;;14.22;100.00
51289;BME280;37372;52.294;5.152;2023-08-06T01:26:00;100414.03;;;14.25;100.00
51289;BME280;37372;52.294;5.152;2023-08-06T01:29:23;100412.09;;;14.26;100.00
51289;BME280;37372;52.294;5.152;2023-08-06T01:31:43;100412.66;;;14.28;100.00
51289;BME280;37372;52.294;5.152;2023-08-06T01:34:20;100417.34;;;14.27;100.00
51289;BME280;37372;52.294;5.152;2023-08-06T01:36:48;100414.59;;;14.27;100.00
51289;BME280;37372;52.294;5.152;2023-08-06T01:39:14;100414.59;;;14.27;100.00
51289;BME280;37372;52.294;5.152;2023-08-06T01:41:41;100413.75;;;14.27;100.00
51289;BME280;37372;52.294;5.152;2023-08-06T01:44:06;100411.78;;;14.22;100.00
51289;BME280;37372;52.294;5.152;2023-08-06T01:46:32;100416.75;;;14.20;100.00
51289;BME280;37372;52.294;5.152;2023-08-06T01:48:58;100416.44;;;14.17;100.00
51289;BME280;37372;52.294;5.152;2023-08-06T01:51:24;100417.25;;;14.12;100.00
51289;BME280;37372;52.294;5.152;2023-08-06T01:53:49;100417.81;;;14.14;100.00
51289;BME280;37372;52.294;5.152;2023-08-06T01:56:15;100415.59;;;14.11;100.00
51289;BME280;37372;52.294;5.152;2023-08-06T01:58:40;100417.75;;;14.09;100.00
51289;BME280;37372;52.294;5.152;2023-08-06T02:01:06;100420.56;;;14.14;100.00
51289;BME280;37372;52.294;5.152;2023-08-06T02:03:31;100413.94;;;14.15;100.00
51289;BME280;37372;52.294;5.152;2023-08-06T02:05:56;100417.81;;;14.14;100.00
51289;BME280;37372;52.294;5.152;2023-08-06T02:08:22;100428.56;;;14.11;100.00
51289;BME280;37372;52.294;5.152;2023-08-06T02:10:48;100426.06;;;14.14;100.00
51289;BME280;37372;52.294;5.152;2023-08-06T02:13:16;100422.50;;;14.14;100.00
51289;BME280;37372;52.294;5.152;2023-08-06T02:15:46;100431.09;;;14.17;100.00
51289;BME280;37372;52.294;5.152;2023-08-06T02:18:31;100425.25;;;14.14;100.00
51289;BME280;37372;52.294;5.152;2023-08-06T02:20:58;100426.63;;;14.16;100.00
51289;BME280;37372;52.294;5.152;2023-08-06T02:23:24;100424.75;;;14.22;100.00
51289;BME280;37372;52.294;5.152;2023-08-06T02:25:57;100419.00;;;14.23;100.00
51289;BME280;37372;52.294;5.152;2023-08-06T02:28:26;100423.41;;;14.24;100.00
51289;BME280;37372;52.294;5.152;2023-08-06T02:30:53;100423.66;;;14.23;100.00
51289;BME280;37372;52.294;5.152;2023-08-06T02:33:22;100420.66;;;14.24;100.00
51289;BME280;37372;52.294;5.152;2023-08-06T02:35:48;100422.84;;;14.27;100.00
51289;BME280;37372;52.294;5.152;2023-08-06T02:38:24;100424.19;;;14.20;100.00
51289;BME280;37372;52.294;5.152;2023-08-06T02:40:50;100417.03;;;14.19;100.00
51289;BME280;37372;52.294;5.152;2023-08-06T02:43:30;100427.22;;;14.18;100.00
51289;BME280;37372;52.294;5.152;2023-08-06T02:46:01;100416.44;;;14.17;100.00
51289;BME280;37372;52.294;5.152;2023-08-06T02:48:27;100410.41;;;14.20;100.00
51289;BME280;37372;52.294;5.152;2023-08-06T02:50:57;100420.88;;;14.18;100.00
51289;BME280;37372;52.294;5.152;2023-08-06T02:53:28;100412.06;;;14.21;100.00
51289;BME280;37372;52.294;5.152;2023-08-06T02:55:55;100415.38;;;14.23;100.00
51289;BME280;37372;52.294;5.152;2023-08-06T02:58:29;100414.59;;;14.27;100.00
51289;BME280;37372;52.294;5.152;2023-08-06T03:01:05;100410.72;;;14.23;100.00
51289;BME280;37372;52.294;5.152;2023-08-06T03:03:33;100413.16;;;14.20;100.00
51289;BME280;37372;52.294;5.152;2023-08-06T03:05:59;100420.66;;;14.24;100.00
51289;BME280;37372;52.294;5.152;2023-08-06T03:08:28;100410.72;;;14.28;100.00
51289;BME280;37372;52.294;5.152;2023-08-06T03:10:54;100412.38;;;14.29;100.00
51289;BME280;37372;52.294;5.152;2023-08-06T03:13:30;100411.31;;;14.30;100.00
51289;BME280;37372;52.294;5.152;2023-08-06T03:15:57;100408.00;;;14.33;100.00
51289;BME280;37372;52.294;5.152;2023-08-06T03:18:29;100405.78;;;14.35;100.00
51289;BME280;37372;52.294;5.152;2023-08-06T03:20:55;100409.91;;;14.28;100.00
51289;BME280;37372;52.294;5.152;2023-08-06T03:23:33;100408.53;;;14.30;100.00
51289;BME280;37372;52.294;5.152;2023-08-06T03:26:02;100414.06;;;14.30;100.00
51289;BME280;37372;52.294;5.152;2023-08-06T03:28:32;100404.69;;;14.31;100.00
51289;BME280;37372;52.294;5.152;2023-08-06T03:31:02;100417.06;;;14.29;100.00
51289;BME280;37372;52.294;5.152;2023-08-06T03:33:35;100410.72;;;14.28;100.00
51289;BME280;37372;52.294;5.152;2023-08-06T03:36:00;100412.38;;;14.24;100.00
51289;BME280;37372;52.294;5.152;2023-08-06T03:38:37;100412.63;;;14.23;100.00
51289;BME280;37372;52.294;5.152;2023-08-06T03:41:04;100415.38;;;14.18;100.00
51289;BME280;37372;52.294;5.152;2023-08-06T03:43:33;100414.00;;;14.20;100.00
51289;BME280;37372;52.294;5.152;2023-08-06T03:46:00;100404.88;;;14.20;100.00
51289;BME280;37372;52.294;5.152;2023-08-06T03:48:36;100408.78;;;14.24;100.00
51289;BME280;37372;52.294;5.152;2023-08-06T03:51:02;100412.63;;;14.23;100.00
51289;BME280;37372;52.294;5.152;2023-08-06T03:53:34;100416.75;;;14.20;100.00
51289;BME280;37372;52.294;5.152;2023-08-06T03:56:00;100411.19;;;14.15;100.00
51289;BME280;37372;52.294;5.152;2023-08-06T03:58:37;100414.75;;;14.11;100.00
51289;BME280;37372;52.294;5.152;2023-08-06T04:01:03;100414.22;;;14.14;100.00
51289;BME280;37372;52.294;5.152;2023-08-06T04:03:42;100413.06;;;14.09;100.00
51289;BME280;37372;52.294;5.152;2023-08-06T04:06:08;100412.84;;;14.11;100.00
51289;BME280;37372;52.294;5.152;2023-08-06T04:08:43;100415.03;;;14.14;100.00
51289;BME280;37372;52.294;5.152;2023-08-06T04:11:08;100422.19;;;14.10;100.00
51289;BME280;37372;52.294;5.152;2023-08-06T04:13:44;100424.94;;;14.10;100.00
51289;BME280;37372;52.294;5.152;2023-08-06T04:16:10;100425.78;;;14.11;100.00
51289;BME280;37372;52.294;5.152;2023-08-06T04:18:37;100423.88;;;14.11;100.00
51289;BME280;37372;52.294;5.152;2023-08-06T04:21:02;100425.25;;;14.14;100.00
51289;BME280;37372;52.294;5.152;2023-08-06T04:23:43;100429.41;;;14.16;100.00
51289;BME280;37372;52.294;5.152;2023-08-06T04:26:09;100434.09;;;14.16;100.00
51289;BME280;37372;52.294;5.152;2023-08-06T04:28:45;100429.66;;;14.15;100.00
51289;BME280;37372;52.294;5.152;2023-08-06T04:31:10;100428.28;;;14.12;100.00
51289;BME280;37372;52.294;5.152;2023-08-06T04:33:51;100427.69;;;14.10;100.00
51289;BME280;37372;52.294;5.152;2023-08-06T04:36:17;100434.31;;;14.09;100.00
51289;BME280;37372;52.294;5.152;2023-08-06T04:38:51;100432.13;;;14.11;100.00
51289;BME280;37372;52.294;5.152;2023-08-06T04:41:18;100438.50;;;14.17;100.00
51289;BME280;37372;52.294;5.152;2023-08-06T04:43:48;100447.38;;;14.19;100.00
51289;BME280;37372;52.294;5.152;2023-08-06T04:46:14;100435.97;;;14.10;100.00
51289;BME280;37372;52.294;5.152;2023-08-06T04:48:50;100436.28;;;14.14;100.00
51289;BME280;37372;52.294;5.152;2023-08-06T04:51:16;100448.97;;;14.15;100.00
51289;BME280;37372;52.294;5.152;2023-08-06T04:53:49;100442.34;;;14.16;100.00
51289;BME280;37372;52.294;5.152;2023-08-06T04:56:15;100449.84;;;14.20;100.00
51289;BME280;37372;52.294;5.152;2023-08-06T04:58:55;100446.00;;;14.21;100.00
51289;BME280;37372;52.294;5.152;2023-08-06T05:01:20;100442.97;;;14.23;100.00
51289;BME280;37372;52.294;5.152;2023-08-06T05:03:50;100447.41;;;14.24;100.00
51289;BME280;37372;52.294;5.152;2023-08-06T05:06:18;100442.19;;;14.27;100.00
51289;BME280;37372;52.294;5.152;2023-08-06T05:08:56;100444.66;;;14.29;100.00
51289;BME280;37372;52.294;5.152;2023-08-06T05:11:22;100449.34;;;14.28;100.00
51289;BME280;37372;52.294;5.152;2023-08-06T05:13:54;100455.75;;;14.34;100.00
51289;BME280;37372;52.294;5.152;2023-08-06T05:16:20;100453.28;;;14.38;100.00
51289;BME280;37372;52.294;5.152;2023-08-06T05:18:55;100463.50;;;14.42;100.00
51289;BME280;37372;52.294;5.152;2023-08-06T05:21:20;100456.41;;;14.46;100.00
51289;BME280;37372;52.294;5.152;2023-08-06T05:23:59;100471.06;;;14.52;100.00
51289;BME280;37372;52.294;5.152;2023-08-06T05:26:25;100466.97;;;14.59;100.00
51289;BME280;37372;52.294;5.152;2023-08-06T05:28:53;100475.63;;;14.73;100.00
51289;BME280;37372;52.294;5.152;2023-08-06T05:31:19;100476.78;;;14.82;100.00
51289;BME280;37372;52.294;5.152;2023-08-06T05:34:04;100480.16;;;14.95;100.00
51289;BME280;37372;52.294;5.152;2023-08-06T05:36:30;100477.13;;;14.96;100.00
51289;BME280;37372;52.294;5.152;2023-08-06T05:39:02;100491.00;;;15.11;100.00
51289;BME280;37372;52.294;5.152;2023-08-06T05:41:29;100491.81;;;15.02;100.00
51289;BME280;37372;52.294;5.152;2023-08-06T05:44:01;100488.81;;;15.13;100.00
51289;BME280;37372;52.294;5.152;2023-08-06T05:46:26;100487.97;;;15.13;100.00
51289;BME280;37372;52.294;5.152;2023-08-06T05:49:03;100489.34;;;15.10;100.00
51289;BME280;37372;52.294;5.152;2023-08-06T05:51:29;100486.31;;;15.12;100.00
51289;BME280;37372;52.294;5.152;2023-08-06T05:54:01;100487.97;;;15.13;100.00
51289;BME280;37372;52.294;5.152;2023-08-06T05:56:27;100489.34;;;15.10;100.00
51289;BME280;37372;52.294;5.152;2023-08-06T05:59:07;100492.06;;;15.05;100.00
51289;BME280;37372;52.294;5.152;2023-08-06T06:01:33;100501.69;;;14.93;100.00
51289;BME280;37372;52.294;5.152;2023-08-06T06:04:24;100498.06;;;14.82;100.00
51289;BME280;37372;52.294;5.152;2023-08-06T06:06:55;100505.44;;;14.71;100.00
51289;BME280;37372;52.294;5.152;2023-08-06T06:09:21;100503.78;;;14.70;100.00
51289;BME280;37372;52.294;5.152;2023-08-06T06:11:47;100510.41;;;14.69;100.00
51289;BME280;37372;52.294;5.152;2023-08-06T06:14:19;100504.53;;;14.60;100.00
51289;BME280;37372;52.294;5.152;2023-08-06T06:16:45;100507.00;;;14.57;100.00
51289;BME280;37372;52.294;5.152;2023-08-06T06:19:11;100509.03;;;14.40;100.00
51289;BME280;37372;52.294;5.152;2023-08-06T06:21:36;100509.59;;;14.36;100.00
51289;BME280;37372;52.294;5.152;2023-08-06T06:24:05;100517.22;;;14.29;100.00
51289;BME280;37372;52.294;5.152;2023-08-06T06:26:40;100512.25;;;14.26;100.00
51289;BME280;37372;52.294;5.152;2023-08-06T06:29:11;100522.13;;;14.22;100.00
51289;BME280;37372;52.294;5.152;2023-08-06T06:31:36;100523.50;;;14.20;100.00
51289;BME280;37372;52.294;5.152;2023-08-06T06:34:08;100529.28;;;14.18;100.00
51289;BME280;37372;52.294;5.152;2023-08-06T06:36:36;100533.75;;;13.92;100.00
51289;BME280;37372;52.294;5.152;2023-08-06T06:39:06;100537.97;;;13.78;100.00
51289;BME280;37372;52.294;5.152;2023-08-06T06:41:36;100538.53;;;13.75;100.00
51289;BME280;37372;52.294;5.152;2023-08-06T06:44:06;100533.28;;;13.73;100.00
51289;BME280;37372;52.294;5.152;2023-08-06T06:46:34;100546.72;;;13.70;100.00
51289;BME280;37372;52.294;5.152;2023-08-06T06:49:14;100549.00;;;13.78;100.00
51289;BME280;37372;52.294;5.152;2023-08-06T06:51:42;100548.44;;;13.76;100.00
51289;BME280;37372;52.294;5.152;2023-08-06T06:54:14;100553.47;;;13.79;100.00
51289;BME280;37372;52.294;5.152;2023-08-06T06:56:42;100540.44;;;13.74;100.00
51289;BME280;37372;52.294;5.152;2023-08-06T06:59:14;100547.88;;;13.74;100.00
51289;BME280;37372;52.294;5.152;2023-08-06T07:01:40;100535.69;;;13.70;100.00
51289;BME280;37372;52.294;5.152;2023-08-06T07:04:34;100530.41;;;13.63;100.00
51289;BME280;37372;52.294;5.152;2023-08-06T07:06:59;100534.78;;;13.59;100.00
51289;BME280;37372;52.294;5.152;2023-08-06T07:12:05;100544.75;;;13.65;100.00
51289;BME280;37372;52.294;5.152;2023-08-06T07:14:30;100553.91;;;13.71;100.00
51289;BME280;37372;52.294;5.152;2023-08-06T07:16:57;100548.09;;;13.67;100.00
51289;BME280;37372;52.294;5.152;2023-08-06T07:19:24;100563.00;;;13.71;100.00
51289;BME280;37372;52.294;5.152;2023-08-06T07:21:50;100557.75;;;13.70;100.00
51289;BME280;37372;52.294;5.152;2023-08-06T07:24:21;100568.22;;;13.68;100.00
51289;BME280;37372;52.294;5.152;2023-08-06T07:26:50;100571.53;;;13.70;100.00
51289;BME280;37372;52.294;5.152;2023-08-06T07:29:22;100580.34;;;13.67;100.00
51289;BME280;37372;52.294;5.152;2023-08-06T07:31:48;100576.63;;;13.56;100.00
51289;BME280;37372;52.294;5.152;2023-08-06T07:34:27;100576.56;;;13.51;100.00
51289;BME280;37372;52.294;5.152;2023-08-06T07:36:54;100587.63;;;13.56;100.00
51289;BME280;37372;52.294;5.152;2023-08-06T07:39:24;100593.72;;;13.58;100.00
51289;BME280;37372;52.294;5.152;2023-08-06T07:41:50;100589.94;;;13.64;100.00
51289;BME280;37372;52.294;5.152;2023-08-06T07:44:25;100595.41;;;13.59;100.00
51289;BME280;37372;52.294;5.152;2023-08-06T07:47:04;100596.03;;;13.66;100.00
51289;BME280;37372;52.294;5.152;2023-08-06T07:49:29;100598.81;;;13.66;100.00
51289;BME280;37372;52.294;5.152;2023-08-06T07:51:56;100599.09;;;13.70;100.00
51289;BME280;37372;52.294;5.152;2023-08-06T07:54:27;100595.03;;;13.72;100.00
51289;BME280;37372;52.294;5.152;2023-08-06T07:56:55;100593.31;;;13.71;100.00
51289;BME280;37372;52.294;5.152;2023-08-06T07:59:28;100594.19;;;13.72;100.00
51289;BME280;37372;52.294;5.152;2023-08-06T08:01:55;100595.06;;;13.77;100.00
51289;BME280;37372;52.294;5.152;2023-08-06T08:04:26;100595.69;;;13.85;100.00
51289;BME280;37372;52.294;5.152;2023-08-06T08:06:57;100603.38;;;13.82;100.00
51289;BME280;37372;52.294;5.152;2023-08-06T08:09:31;100599.31;;;13.85;100.00
51289;BME280;37372;52.294;5.152;2023-08-06T08:12:01;100596.34;;;13.92;100.00
51289;BME280;37372;52.294;5.152;2023-08-06T08:14:29;100588.38;;;13.95;100.00
51289;BME280;37372;52.294;5.152;2023-08-06T08:17:00;100603.25;;;13.94;100.00
51289;BME280;37372;52.294;5.152;2023-08-06T08:19:27;100603.59;;;13.98;100.00
51289;BME280;37372;52.294;5.152;2023-08-06T08:21:54;100609.53;;;13.90;100.00
51289;BME280;37372;52.294;5.152;2023-08-06T08:24:44;100612.56;;;13.88;100.00
51289;BME280;37372;52.294;5.152;2023-08-06T08:27:11;100612.19;;;13.79;100.00
51289;BME280;37372;52.294;5.152;2023-08-06T08:29:37;100613.31;;;13.83;100.00
51289;BME280;37372;52.294;5.152;2023-08-06T08:32:03;100617.72;;;13.79;100.00
51289;BME280;37372;52.294;5.152;2023-08-06T08:34:32;100615.78;;;13.80;100.00
51289;BME280;37372;52.294;5.152;2023-08-06T08:36:57;100616.03;;;13.78;100.00
51289;BME280;37372;52.294;5.152;2023-08-06T08:39:32;100613.28;;;13.78;100.00
51289;BME280;37372;52.294;5.152;2023-08-06T08:41:59;100613.84;;;13.80;100.00
51289;BME280;37372;52.294;5.152;2023-08-06T08:44:34;100609.38;;;13.74;100.00
51289;BME280;37372;52.294;5.152;2023-08-06T08:47:04;100609.66;;;13.78;100.00
51289;BME280;37372;52.294;5.152;2023-08-06T08:49:35;100613.53;;;13.77;100.00
51289;BME280;37372;52.294;5.152;2023-08-06T08:52:01;100609.38;;;13.74;100.00
51289;BME280;37372;52.294;5.152;2023-08-06T08:54:38;100614.34;;;13.77;100.00
51289;BME280;37372;52.294;5.152;2023-08-06T08:57:06;100617.72;;;13.79;100.00
51289;BME280;37372;52.294;5.152;2023-08-06T08:59:37;100623.78;;;13.81;100.00
51289;BME280;37372;52.294;5.152;2023-08-06T09:02:02;100623.53;;;13.83;100.00
51289;BME280;37372;52.294;5.152;2023-08-06T09:04:38;100627.19;;;13.89;100.00
51289;BME280;37372;52.294;5.152;2023-08-06T09:07:08;100625.84;;;13.91;100.00
51289;BME280;37372;52.294;5.152;2023-08-06T09:09:40;100630.75;;;13.89;100.00
51289;BME280;37372;52.294;5.152;2023-08-06T09:12:14;100636.22;;;13.84;100.00
51289;BME280;37372;52.294;5.152;2023-08-06T09:14:44;100635.44;;;13.89;100.00
51289;BME280;37372;52.294;5.152;2023-08-06T09:17:11;100639.03;;;13.89;100.00
51289;BME280;37372;52.294;5.152;2023-08-06T09:19:46;100640.41;;;13.87;100.00
51289;BME280;37372;52.294;5.152;2023-08-06T09:22:15;100651.44;;;13.87;100.00
51289;BME280;37372;52.294;5.152;2023-08-06T09:24:48;100657.72;;;13.82;100.00
51289;BME280;37372;52.294;5.152;2023-08-06T09:27:14;100664.13;;;13.88;100.00
51289;BME280;37372;52.294;5.152;2023-08-06T09:29:43;100663.84;;;13.89;100.00
51289;BME280;37372;52.294;5.152;2023-08-06T09:32:12;100666.13;;;13.92;100.00
51289;BME280;37372;52.294;5.152;2023-08-06T09:34:47;100673.41;;;13.81;100.00
51289;BME280;37372;52.294;5.152;2023-08-06T09:37:25;100683.69;;;13.86;100.00
51289;BME280;37372;52.294;5.152;2023-08-06T09:40:00;100685.00;;;13.83;100.00
51289;BME280;37372;52.294;5.152;2023-08-06T09:42:25;100685.53;;;13.80;100.00
51289;BME280;37372;52.294;5.152;2023-08-06T09:45:05;100686.19;;;13.88;100.00
51289;BME280;37372;52.294;5.152;2023-08-06T09:47:33;100682.53;;;13.82;100.00
51289;BME280;37372;52.294;5.152;2023-08-06T09:50:03;100671.00;;;13.85;100.00
51289;BME280;37372;52.294;5.152;2023-08-06T09:52:31;100683.09;;;13.84;100.00
51289;BME280;37372;52.294;5.152;2023-08-06T09:55:03;100682.31;;;13.89;100.00
51289;BME280;37372;52.294;5.152;2023-08-06T09:57:30;100683.41;;;13.88;100.00
51289;BME280;37372;52.294;5.152;2023-08-06T09:59:57;100688.41;;;13.91;100.00
51289;BME280;37372;52.294;5.152;2023-08-06T10:02:24;100687.91;;;13.94;100.00
51289;BME280;37372;52.294;5.152;2023-08-06T10:04:55;100693.50;;;13.99;100.00
51289;BME280;37372;52.294;5.152;2023-08-06T10:07:22;100698.19;;;13.98;100.00
51289;BME280;37372;52.294;5.152;2023-08-06T10:09:58;100690.13;;;13.97;100.00
51289;BME280;37372;52.294;5.152;2023-08-06T10:12:25;100697.09;;;13.99;100.00
51289;BME280;37372;52.294;5.152;2023-08-06T10:14:57;100694.06;;;14.01;100.00
51289;BME280;37372;52.294;5.152;2023-08-06T10:17:26;100698.22;;;14.03;100.00
51289;BME280;37372;52.294;5.152;2023-08-06T10:19:59;100698.69;;;13.95;100.00
51289;BME280;37372;52.294;5.152;2023-08-06T10:22:24;100703.81;;;13.87;100.00
51289;BME280;37372;52.294;5.152;2023-08-06T10:24:58;100701.44;;;13.95;100.00
51289;BME280;37372;52.294;5.152;2023-08-06T10:30:30;100700.59;;;13.95;100.00
51289;BME280;37372;52.294;5.152;2023-08-06T10:33:09;100711.72;;;14.00;100.00
51289;BME280;37372;52.294;5.152;2023-08-06T10:35:46;100718.31;;;13.99;100.00
51289;BME280;37372;52.294;5.152;2023-08-06T10:38:19;100713.31;;;13.96;100.00
51289;BME280;37372;52.294;5.152;2023-08-06T10:41:00;100721.97;;;14.04;100.00
51289;BME280;37372;52.294;5.152;2023-08-06T10:45:56;100720.06;;;14.05;100.00
51289;BME280;37372;52.294;5.152;2023-08-06T10:48:35;100721.97;;;14.04;100.00
51289;BME280;37372;52.294;5.152;2023-08-06T10:51:03;100718.69;;;14.07;100.00
51289;BME280;37372;52.294;5.152;2023-08-06T10:53:29;100715.38;;;14.05;100.00
51289;BME280;37372;52.294;5.152;2023-08-06T10:55:55;100725.88;;;14.08;100.00
51289;BME280;37372;52.294;5.152;2023-08-06T10:58:21;100726.91;;;14.02;100.00
51289;BME280;37372;52.294;5.152;2023-08-06T11:00:47;100726.00;;;13.97;100.00
51289;BME280;37372;52.294;5.152;2023-08-06T11:03:12;100723.69;;;13.89;100.00
51289;BME280;37372;52.294;5.152;2023-08-06T11:05:40;100733.63;;;13.90;100.00
51289;BME280;37372;52.294;5.152;2023-08-06T11:08:05;100729.66;;;13.80;100.00
51289;BME280;37372;52.294;5.152;2023-08-06T11:10:33;100725.16;;;13.74;100.00
51289;BME280;37372;52.294;5.152;2023-08-06T11:13:03;100724.41;;;13.79;100.00
51289;BME280;37372;52.294;5.152;2023-08-06T11:15:30;100723.19;;;13.92;100.00
51289;BME280;37372;52.294;5.152;2023-08-06T11:17:56;100726.00;;;13.97;100.00
51289;BME280;37372;52.294;5.152;2023-08-06T11:20:22;100726.66;;;14.04;100.00
51289;BME280;37372;52.294;5.152;2023-08-06T11:22:50;100731.53;;;14.19;100.00
51289;BME280;37372;52.294;5.152;2023-08-06T11:25:15;100731.91;;;14.27;100.00
51289;BME280;37372;52.294;5.152;2023-08-06T11:27:41;100731.69;;;14.34;100.00
51289;BME280;37372;52.294;5.152;2023-08-06T11:30:11;100743.50;;;14.29;100.00
51289;BME280;37372;52.294;5.152;2023-08-06T11:32:47;100743.25;;;14.31;100.00
51289;BME280;37372;52.294;5.152;2023-08-06T11:35:14;100738.94;;;14.40;100.00
51289;BME280;37372;52.294;5.152;2023-08-06T11:37:44;100749.34;;;14.55;100.00
51289;BME280;37372;52.294;5.152;2023-08-06T11:40:15;100742.16;;;14.54;100.00
51289;BME280;37372;52.294;5.152;2023-08-06T11:42:42;100751.06;;;14.61;100.00
51289;BME280;37372;52.294;5.152;2023-08-06T11:45:09;100752.56;;;14.74;100.00
51289;BME280;37372;52.294;5.152;2023-08-06T11:47:39;100755.94;;;14.76;100.00
51289;BME280;37372;52.294;5.152;2023-08-06T11:50:24;100757.06;;;14.80;100.00
51289;BME280;37372;52.294;5.152;2023-08-06T11:53:00;100754.41;;;14.90;100.00
51289;BME280;37372;52.294;5.152;2023-08-06T11:55:26;100754.47;;;14.95;100.00
51289;BME280;37372;52.294;5.152;2023-08-06T11:57:54;100758.63;;;14.98;100.00
51289;BME280;37372;52.294;5.152;2023-08-06T12:00:25;100755.06;;;15.02;100.00
51289;BME280;37372;52.294;5.152;2023-08-06T12:02:52;100755.03;;;14.97;100.00
51289;BME280;37372;52.294;5.152;2023-08-06T12:05:30;100758.56;;;14.93;100.00
51289;BME280;37372;52.294;5.152;2023-08-06T12:08:01;100759.66;;;14.92;100.00
51289;BME280;37372;52.294;5.152;2023-08-06T12:10:32;100752.41;;;14.85;100.00
51289;BME280;37372;52.294;5.152;2023-08-06T12:12:57;100761.44;;;14.76;100.00
51289;BME280;37372;52.294;5.152;2023-08-06T12:15:24;100758.28;;;14.89;100.00
51289;BME280;37372;52.294;5.152;2023-08-06T12:17:51;100763.53;;;14.90;100.00
51289;BME280;37372;52.294;5.152;2023-08-06T12:20:16;100769.88;;;14.91;100.00
51289;BME280;37372;52.294;5.152;2023-08-06T12:22:41;100772.53;;;14.81;100.00
51289;BME280;37372;52.294;5.152;2023-08-06T12:25:23;100772.84;;;14.84;100.00
51289;BME280;37372;52.294;5.152;2023-08-06T12:27:49;100767.78;;;15.03;100.00
51289;BME280;37372;52.294;5.152;2023-08-06T12:30:24;100761.50;;;15.13;100.00
51289;BME280;37372;52.294;5.152;2023-08-06T12:32:50;100765.97;;;15.14;100.00
51289;BME280;37372;52.294;5.152;2023-08-06T12:35:21;100767.88;;;15.13;100.00
51289;BME280;37372;52.294;5.152;2023-08-06T12:37:47;100766.41;;;15.01;100.00
51289;BME280;37372;52.294;5.152;2023-08-06T12:40:25;100775.84;;;15.10;100.00
51289;BME280;37372;52.294;5.152;2023-08-06T12:42:51;100774.25;;;15.14;100.00
51289;BME280;37372;52.294;5.152;2023-08-06T12:45:25;100778.69;;;15.15;100.00
51289;BME280;37372;52.294;5.152;2023-08-06T12:47:50;100788.09;;;15.19;100.00
51289;BME280;37372;52.294;5.152;2023-08-06T12:50:31;100782.25;;;15.15;100.00
51289;BME280;37372;52.294;5.152;2023-08-06T12:52:59;100786.38;;;15.13;100.00
51289;BME280;37372;52.294;5.152;2023-08-06T12:55:25;100792.75;;;15.13;100.00
51289;BME280;37372;52.294;5.152;2023-08-06T12:57:51;100790.22;;;15.12;100.00
51289;BME280;37372;52.294;5.152;2023-08-06T13:00:29;100804.31;;;15.10;100.00
51289;BME280;37372;52.294;5.152;2023-08-06T13:02:57;100798.53;;;15.12;100.00
51289;BME280;37372;52.294;5.152;2023-08-06T13:05:25;100806.81;;;15.12;100.00
51289;BME280;37372;52.294;5.152;2023-08-06T13:07:53;100810.19;;;15.19;100.00
51289;BME280;37372;52.294;5.152;2023-08-06T13:10:22;100809.28;;;15.08;100.00